Brushvale, Minnesota
Current Conditions -  °F | °C
As of 12:15 PM on Tuesday 21 Oct 2014 (Local Time) from KBWP Reporting Station
Clear Clear  
Wind Chill: 15°   Ceiling: Unl
Heat Index: 15°   Visibility: 10mi
Dew Point:   Wind: 25mph
Humidity: 45%   Direction: 140°SE
Pressure: 30"   Gusts: 33mph
Location:  46.3422°N, 96.4653°W
Report Text: KBWP 211715Z AUTO 14022G29KT 10SM CLR 15/03 A3000 RMK AO1
Loading
Personal Weather Stations






























Interactive Weather Map
Tropical Storm Tracking
New forecast layout! Learn more

10-Day Weather Forecast

Advertisements
Track Severe Weather on mobile